Terminal Aerodrome Forecast
Issued by NWS

Home | Current Version | Previous Version | Text Only | Print | Product List | Glossary On
Versions: 1 2 3 4 5 6 7 8 9 10 11 12 13 14 15 16 17 18 19 20
857
FTUS43 KJKL 181142
TAFSME
TAF
KSME 181142Z 1812/1912 19010G20KT P6SM BKN050
     FM181400 20014G28KT P6SM BKN050
     FM181800 20016G31KT P6SM VCSH OVC025
     FM182000 20017G31KT 3SM SHRA VCTS OVC025CB
     FM190200 28012G25KT 4SM -RA BR BKN020=

USA.gov is the U.S. government's official web portal to all federal, state and local government web resources and services.